Time;durP1;ratioP1;P1;durP2;ratioP2;P2;SDS_P1;SDS_P2;PMS_P1;PMS_P2;Temp;Humidity;BMP_temperature;BMP_pressure;BME280_temperature;BME280_humidity;BME280_pressure;Samples;Min_cycle;Max_cycle;Signal;HPM_P1;HPM_P2
2023/03/30 00:00:50;;;;;;;0.00;0.00;;;;;;;10.50;71.42;102129.03;2028766;29;20683;-72
2023/03/30 00:02:17;;;;;;;0.00;0.00;;;;;;;10.50;71.60;102133.44;2034074;29;20051;-71
2023/03/30 00:03:39;;;;;;;0.38;0.20;;;;;;;10.48;71.68;102130.75;2038167;29;20062;-71
2023/03/30 00:05:03;;;;;;;0.00;0.00;;;;;;;10.45;71.88;102130.63;2037500;29;20044;-71
2023/03/30 00:06:27;;;;;;;0.00;0.00;;;;;;;10.41;72.13;102131.34;2036939;29;20043;-71
2023/03/30 00:07:49;;;;;;;0.35;0.00;;;;;;;10.41;72.58;102130.44;2037875;29;20103;-71
2023/03/30 00:09:12;;;;;;;0.15;0.10;;;;;;;10.40;72.40;102132.19;2037512;29;20070;-71
2023/03/30 00:10:33;;;;;;;0.00;0.00;;;;;;;10.41;72.41;102135.72;2037476;29;20059;-71
2023/03/30 00:11:56;;;;;;;0.17;0.17;;;;;;;10.38;72.44;102132.13;2029687;29;20523;-70
2023/03/30 00:13:18;;;;;;;0.10;0.10;;;;;;;10.36;72.59;102133.81;2042773;29;20487;-71
2023/03/30 00:14:41;;;;;;;0.05;0.05;;;;;;;10.33;72.76;102133.69;2032249;29;20052;-72
2023/03/30 00:16:06;;;;;;;0.10;0.10;;;;;;;10.32;72.89;102130.97;2042809;28;20179;-71
2023/03/30 00:17:29;;;;;;;0.00;0.00;;;;;;;10.28;73.18;102129.06;2039282;29;20044;-72
2023/03/30 00:18:52;;;;;;;0.20;0.15;;;;;;;10.24;73.52;102128.03;2037475;29;20480;-71
2023/03/30 00:20:17;;;;;;;0.00;0.00;;;;;;;10.22;73.71;102126.22;2024193;29;20521;-71
2023/03/30 00:21:41;;;;;;;0.00;0.00;;;;;;;10.19;74.02;102116.41;2035974;29;20203;-71
2023/03/30 00:23:02;;;;;;;0.00;0.00;;;;;;;10.21;73.82;102127.03;2037646;29;20396;-70
2023/03/30 00:24:24;;;;;;;0.00;0.00;;;;;;;10.22;73.58;102123.56;2035445;29;20058;-70
2023/03/30 00:25:46;;;;;;;0.00;0.00;;;;;;;10.22;73.47;102119.19;2032078;29;20413;-71
2023/03/30 00:27:09;;;;;;;0.00;0.00;;;;;;;10.19;73.53;102124.34;2029813;29;20552;-71
2023/03/30 00:28:31;;;;;;;0.13;0.13;;;;;;;10.18;73.71;102125.16;2034732;29;20102;-71
2023/03/30 00:29:54;;;;;;;0.10;0.10;;;;;;;10.14;73.87;102123.22;2029425;29;20052;-71
2023/03/30 00:31:17;;;;;;;1.95;0.90;;;;;;;10.12;74.08;102124.91;2035194;29;20559;-71
2023/03/30 00:32:38;;;;;;;1.65;0.38;;;;;;;10.12;74.19;102116.06;2036253;29;20174;-71
2023/03/30 00:34:00;;;;;;;0.00;0.00;;;;;;;10.12;73.99;102118.72;2037775;29;20122;-71
2023/03/30 00:35:22;;;;;;;0.05;0.05;;;;;;;10.12;73.99;102119.63;2029176;29;20040;-71
2023/03/30 00:36:47;;;;;;;0.00;0.00;;;;;;;10.12;73.88;102122.25;2028901;29;20048;-71
2023/03/30 00:38:09;;;;;;;0.00;0.00;;;;;;;10.11;73.78;102128.38;2031545;29;20136;-71
2023/03/30 00:39:32;;;;;;;0.00;0.00;;;;;;;10.09;73.96;102126.53;2028611;29;20186;-71
2023/03/30 00:40:56;;;;;;;0.00;0.00;;;;;;;10.09;73.92;102121.25;2027245;29;20332;-72
2023/03/30 00:42:20;;;;;;;0.00;0.00;;;;;;;10.08;73.69;102122.09;2023814;29;20056;-72
2023/03/30 00:43:56;;;;;;;0.00;0.00;;;;;;;10.08;73.48;102128.28;2035413;29;20464;-71
2023/03/30 00:45:25;;;;;;;0.00;0.00;;;;;;;10.09;73.31;102127.44;2039238;29;20437;-71
2023/03/30 00:46:46;;;;;;;0.00;0.00;;;;;;;10.09;73.27;102123.91;2034653;29;20052;-71
2023/03/30 00:48:14;;;;;;;0.00;0.00;;;;;;;10.09;73.17;102130.06;2028853;29;20052;-71
2023/03/30 00:49:35;;;;;;;0.00;0.00;;;;;;;10.07;73.20;102128.19;2034754;29;20058;-71
2023/03/30 00:51:01;;;;;;;0.43;0.20;;;;;;;10.08;73.09;102130.00;2028902;29;20440;-71
2023/03/30 00:52:26;;;;;;;0.00;0.00;;;;;;;10.04;73.10;102134.28;2039087;29;20056;-71
2023/03/30 00:53:51;;;;;;;0.17;0.17;;;;;;;10.02;73.25;102138.59;2032109;29;20055;-71
2023/03/30 00:55:13;;;;;;;0.30;0.30;;;;;;;9.95;73.91;102134.81;2028911;29;20151;-71
2023/03/30 00:56:35;;;;;;;0.10;0.10;;;;;;;9.88;74.40;102127.47;2019404;29;20100;-70
2023/03/30 00:57:57;;;;;;;0.10;0.10;;;;;;;9.83;75.27;102131.66;2041101;29;20515;-71
2023/03/30 00:59:20;;;;;;;0.43;0.43;;;;;;;9.76;75.80;102132.25;2035691;29;20044;-71
2023/03/30 01:00:45;;;;;;;0.10;0.10;;;;;;;9.69;76.79;102132.84;2037436;29;20058;-71
2023/03/30 01:02:07;;;;;;;0.00;0.00;;;;;;;9.65;77.15;102130.03;2037845;29;20047;-71
2023/03/30 01:03:34;;;;;;;0.00;0.00;;;;;;;9.60;77.77;102129.81;2032124;29;20056;-71
2023/03/30 01:04:56;;;;;;;0.00;0.00;;;;;;;9.57;77.85;102130.59;2029835;29;20047;-71
2023/03/30 01:06:23;;;;;;;0.28;0.25;;;;;;;9.54;78.09;102124.28;2032348;29;20075;-71
2023/03/30 01:07:48;;;;;;;0.10;0.10;;;;;;;9.50;78.50;102123.28;2037359;29;20054;-71
2023/03/30 01:09:12;;;;;;;0.00;0.00;;;;;;;9.47;78.83;102125.78;2029108;29;20431;-71
2023/03/30 01:10:35;;;;;;;0.15;0.10;;;;;;;9.46;78.97;102125.69;2018792;29;20060;-71
2023/03/30 01:11:58;;;;;;;0.65;0.65;;;;;;;9.42;79.19;102123.78;2035315;29;20061;-70
2023/03/30 01:13:20;;;;;;;0.17;0.08;;;;;;;9.35;79.92;102127.91;2044158;29;20377;-71
2023/03/30 01:14:42;;;;;;;0.00;0.00;;;;;;;9.27;80.77;102123.13;2038055;29;20048;-71
2023/03/30 01:16:19;;;;;;;0.00;0.00;;;;;;;9.23;81.34;102127.38;2036984;29;20594;-71
2023/03/30 01:17:57;;;;;;;0.00;0.00;;;;;;;9.18;81.63;102127.19;2023927;29;20140;-71
2023/03/30 01:19:48;;;;;;;0.00;0.00;;;;;;;9.14;81.89;102125.25;2030995;29;20048;-71
2023/03/30 01:21:44;;;;;;;0.10;0.10;;;;;;;9.07;82.73;102132.81;2039424;29;20106;-70
2023/03/30 01:23:29;;;;;;;6.22;0.08;;;;;;;9.01;83.17;102125.53;2039203;29;20183;-70
2023/03/30 01:25:35;;;;;;;0.35;0.30;;;;;;;8.95;84.86;102120.00;2047015;29;20051;-71
2023/03/30 01:27:03;;;;;;;0.00;0.00;;;;;;;8.92;85.41;102119.88;2029862;29;20143;-71
2023/03/30 01:28:39;;;;;;;0.03;0.03;;;;;;;8.89;85.22;102111.84;2036402;29;20048;-71
2023/03/30 01:30:25;;;;;;;0.00;0.00;;;;;;;8.83;85.61;102110.66;2039119;29;20075;-71
2023/03/30 01:32:03;;;;;;;0.03;0.03;;;;;;;8.70;86.62;102111.84;2023437;29;20080;-71
2023/03/30 01:34:03;;;;;;;0.20;0.20;;;;;;;8.59;87.35;102107.84;2032958;29;20048;-71
2023/03/30 01:35:43;;;;;;;1.63;0.40;;;;;;;8.50;88.15;102110.97;2037064;29;20059;-71
2023/03/30 01:37:56;;;;;;;0.10;0.10;;;;;;;8.46;88.29;102109.03;2024016;29;20647;-71
2023/03/30 01:39:35;;;;;;;0.08;0.08;;;;;;;8.37;89.09;102104.22;2013296;29;20143;-71
2023/03/30 01:41:05;;;;;;;1.02;0.10;;;;;;;8.31;89.71;102105.69;2021454;29;20612;-71
2023/03/30 01:42:35;;;;;;;0.00;0.00;;;;;;;8.25;90.34;102108.91;2029370;29;20056;-71
2023/03/30 01:44:03;;;;;;;0.00;0.00;;;;;;;8.20;90.57;102105.16;2042848;29;20058;-71
2023/03/30 01:45:39;;;;;;;0.00;0.00;;;;;;;8.17;91.16;102101.47;2041250;29;20105;-71
2023/03/30 01:47:09;;;;;;;0.40;0.20;;;;;;;8.14;92.33;102106.59;2031937;29;20107;-72
2023/03/30 01:48:44;;;;;;;0.10;0.10;;;;;;;8.13;92.37;102100.44;2029877;29;20154;-71
2023/03/30 01:50:11;;;;;;;1.98;0.38;;;;;;;8.14;92.49;102104.84;2029389;29;20052;-71
2023/03/30 01:51:39;;;;;;;0.00;0.00;;;;;;;8.18;92.74;102104.19;2028132;29;20052;-72
2023/03/30 01:53:10;;;;;;;0.00;0.00;;;;;;;8.22;92.63;102108.75;2028154;29;20336;-72
2023/03/30 01:54:37;;;;;;;0.00;0.00;;;;;;;8.26;92.30;102108.06;2028955;29;20043;-71
2023/03/30 01:56:07;;;;;;;0.00;0.00;;;;;;;8.24;91.99;102109.72;2036789;29;20073;-71
2023/03/30 01:57:37;;;;;;;0.40;0.15;;;;;;;8.21;92.16;102104.31;2029609;29;20661;-71
2023/03/30 01:59:04;;;;;;;0.10;0.10;;;;;;;8.17;92.40;102114.63;2026323;29;20054;-71
2023/03/30 02:00:28;;;;;;;0.10;0.10;;;;;;;8.11;92.85;102114.34;2029108;29;20048;-72
2023/03/30 02:01:59;;;;;;;0.00;0.00;;;;;;;8.05;93.28;102107.06;2032886;29;20055;-72
2023/03/30 02:03:26;;;;;;;0.00;0.00;;;;;;;7.95;93.42;102108.34;2030098;29;20037;-71
2023/03/30 02:04:52;;;;;;;0.00;0.00;;;;;;;7.88;94.03;102111.50;2020917;29;20088;-71
2023/03/30 02:06:22;;;;;;;0.03;0.03;;;;;;;7.82;94.60;102105.94;2025391;29;20040;-71
2023/03/30 02:07:48;;;;;;;0.00;0.00;;;;;;;7.75;95.06;102103.84;2036043;29;20064;-71
2023/03/30 02:09:15;;;;;;;0.10;0.00;;;;;;;7.68;95.83;102109.63;2029122;29;20560;-71
2023/03/30 02:10:40;;;;;;;0.03;0.03;;;;;;;7.60;96.67;102116.28;2027851;29;20040;-70
2023/03/30 02:12:04;;;;;;;0.00;0.00;;;;;;;7.57;97.25;102116.09;2035537;29;20166;-71
2023/03/30 02:13:32;;;;;;;0.00;0.00;;;;;;;7.54;97.25;102115.97;2029622;29;20075;-71
2023/03/30 02:14:58;;;;;;;0.10;0.10;;;;;;;7.53;98.22;102115.06;2033506;29;20075;-71
2023/03/30 02:16:27;;;;;;;0.45;0.10;;;;;;;7.54;98.65;102119.50;2029291;29;20056;-72
2023/03/30 02:17:50;;;;;;;0.00;0.00;;;;;;;7.57;98.83;102113.47;2035751;29;20039;-71
2023/03/30 02:19:11;;;;;;;0.00;0.00;;;;;;;7.59;98.60;102107.47;2036521;29;20075;-71
2023/03/30 02:20:35;;;;;;;0.32;0.22;;;;;;;7.62;98.25;102117.22;2027703;29;20048;-71
2023/03/30 02:21:59;;;;;;;0.10;0.10;;;;;;;7.60;98.64;102103.13;2026944;29;20060;-71
2023/03/30 02:23:23;;;;;;;0.15;0.15;;;;;;;7.58;98.62;102108.31;2033934;29;20058;-71
2023/03/30 02:24:48;;;;;;;0.08;0.08;;;;;;;7.57;98.93;102108.22;2028487;29;20048;-71
2023/03/30 02:26:14;;;;;;;0.52;0.20;;;;;;;7.54;98.93;102102.84;2033753;29;20249;-71
2023/03/30 02:27:37;;;;;;;0.00;0.00;;;;;;;7.50;99.17;102111.38;2028900;29;20040;-71
2023/03/30 02:28:59;;;;;;;0.32;0.32;;;;;;;7.47;99.57;102108.59;2033941;29;20066;-71
2023/03/30 02:30:23;;;;;;;0.20;0.20;;;;;;;7.43;99.74;102109.25;2027790;29;20047;-71
2023/03/30 02:31:47;;;;;;;0.00;0.00;;;;;;;7.41;100.00;102105.69;2033879;29;20427;-71
2023/03/30 02:33:17;;;;;;;0.00;0.00;;;;;;;7.40;100.00;102111.75;2028986;29;20050;-72
2023/03/30 02:35:04;;;;;;;4.63;0.63;;;;;;;7.37;100.00;102115.09;2026915;29;20496;-71
2023/03/30 02:36:37;;;;;;;0.00;0.00;;;;;;;7.33;100.00;102114.88;2026306;29;20094;-71
2023/03/30 02:38:25;;;;;;;0.00;0.00;;;;;;;7.30;100.00;102110.38;2027433;29;20052;-72
2023/03/30 02:40:09;;;;;;;0.00;0.00;;;;;;;7.29;100.00;102112.91;2039279;29;20047;-70
2023/03/30 02:43:27;;;;;;;0.00;0.00;;;;;;;7.28;100.00;102113.75;2094131;27;20439;-71
2023/03/30 02:45:03;;;;;;;0.00;0.00;;;;;;;7.24;100.00;102110.06;2085061;28;20140;-71
2023/03/30 02:46:42;;;;;;;0.00;0.00;;;;;;;7.19;100.00;102109.84;2104929;28;20507;-72
2023/03/30 02:48:18;;;;;;;0.15;0.15;;;;;;;7.17;100.00;102100.06;2085585;28;20433;-71
2023/03/30 02:49:53;;;;;;;0.45;0.45;;;;;;;7.16;100.00;102108.75;2084439;28;20503;-71
2023/03/30 02:51:33;;;;;;;0.90;0.13;;;;;;;7.15;100.00;102104.38;2091774;28;20049;-71
2023/03/30 02:53:18;;;;;;;0.00;0.00;;;;;;;7.08;100.00;102107.50;2085889;28;20123;-70
2023/03/30 02:54:47;;;;;;;0.00;0.00;;;;;;;7.04;100.00;102101.19;2091315;28;20045;-71
2023/03/30 02:56:22;;;;;;;0.25;0.13;;;;;;;7.04;100.00;102108.16;2090002;28;20132;-71
2023/03/30 02:58:03;;;;;;;0.10;0.10;;;;;;;7.02;100.00;102104.56;2101571;28;20063;-71
2023/03/30 02:59:52;;;;;;;0.10;0.10;;;;;;;6.99;100.00;102110.53;2092228;28;20045;-71
2023/03/30 03:01:18;;;;;;;0.20;0.20;;;;;;;7.00;100.00;102108.81;2085425;28;20060;-70
2023/03/30 03:03:00;;;;;;;0.25;0.25;;;;;;;7.00;100.00;102109.72;2085646;28;20045;-71
2023/03/30 03:04:27;;;;;;;0.00;0.00;;;;;;;6.99;100.00;102110.53;2083133;28;20049;-71
2023/03/30 03:06:20;;;;;;;0.00;0.00;;;;;;;6.91;100.00;102104.00;2076438;28;20042;-71
2023/03/30 03:07:47;;;;;;;0.00;0.00;;;;;;;6.89;100.00;102112.63;2067342;28;20050;-71
2023/03/30 03:09:09;;;;;;;0.20;0.20;;;;;;;6.88;100.00;102102.94;2075781;28;20515;-70
2023/03/30 03:10:35;;;;;;;1.60;0.38;;;;;;;6.88;100.00;102102.94;2093125;28;20053;-71
2023/03/30 03:11:58;;;;;;;0.00;0.00;;;;;;;6.86;100.00;102109.81;2083389;28;20112;-71
2023/03/30 03:13:23;;;;;;;0.00;0.00;;;;;;;6.83;100.00;102105.31;2096330;28;20048;-71
2023/03/30 03:14:47;;;;;;;0.00;0.00;;;;;;;6.84;100.00;102107.13;2085377;28;20041;-71
2023/03/30 03:16:11;;;;;;;2.42;0.52;;;;;;;6.84;100.00;102107.13;2089482;28;20091;-71
2023/03/30 03:17:35;;;;;;;0.00;0.00;;;;;;;6.84;100.00;102098.34;2089804;28;20070;-71
2023/03/30 03:18:58;;;;;;;0.00;0.00;;;;;;;6.79;100.00;102099.00;2084281;28;20103;-71
2023/03/30 03:20:21;;;;;;;0.00;0.00;;;;;;;6.77;100.00;102105.00;2080652;28;20392;-71
2023/03/30 03:21:43;;;;;;;0.10;0.10;;;;;;;6.74;100.00;102102.22;2083257;28;20045;-71
2023/03/30 03:23:06;;;;;;;0.10;0.10;;;;;;;6.74;100.00;102105.75;2080338;28;20049;-71
2023/03/30 03:24:39;;;;;;;0.08;0.08;;;;;;;6.73;100.00;102108.28;2083091;28;20080;-71
2023/03/30 03:26:05;;;;;;;0.00;0.00;;;;;;;6.75;100.00;102112.81;2082121;28;20053;-71
2023/03/30 03:27:27;;;;;;;0.00;0.00;;;;;;;6.78;100.00;102106.78;2081925;28;20482;-71
2023/03/30 03:29:16;;;;;;;0.20;0.20;;;;;;;6.77;100.00;102110.25;2082061;28;20049;-72
2023/03/30 03:30:40;;;;;;;0.00;0.00;;;;;;;6.77;100.00;102112.84;2083448;28;20115;-71
2023/03/30 03:32:12;;;;;;;0.00;0.00;;;;;;;6.73;100.00;102118.78;2100181;28;20097;-72
2023/03/30 03:33:39;;;;;;;0.00;0.00;;;;;;;6.71;100.00;102128.28;2083769;28;20120;-71
2023/03/30 03:35:08;;;;;;;0.00;0.00;;;;;;;6.69;100.00;102112.50;2089989;28;20559;-71
2023/03/30 03:36:31;;;;;;;;;;;;;;;6.64;100.00;102118.28;2086519;28;20050;-71
2023/03/30 03:37:53;;;;;;;0.73;0.15;;;;;;;6.64;100.00;102113.03;2082931;28;19928;-71
2023/03/30 03:39:14;;;;;;;0.00;0.00;;;;;;;6.65;100.00;102120.09;2086775;28;20061;-71
2023/03/30 03:40:37;;;;;;;0.13;0.13;;;;;;;6.60;100.00;102108.47;2085963;28;20045;-71
2023/03/30 03:42:00;;;;;;;0.05;0.05;;;;;;;6.56;100.00;102117.00;2080540;28;20041;-71
2023/03/30 03:43:22;;;;;;;0.20;0.20;;;;;;;6.57;100.00;102116.16;2085127;28;20084;-71
2023/03/30 03:44:45;;;;;;;0.25;0.25;;;;;;;6.59;100.00;102106.66;2083333;28;20125;-71
2023/03/30 03:46:09;;;;;;;0.05;0.05;;;;;;;6.62;100.00;102109.44;2083726;28;20037;-71
2023/03/30 03:47:30;;;;;;;0.00;0.00;;;;;;;6.64;100.00;102113.03;2087409;28;20559;-72
2023/03/30 03:48:53;;;;;;;0.20;0.20;;;;;;;6.64;100.00;102118.28;2083449;28;20049;-71
2023/03/30 03:50:14;;;;;;;0.10;0.10;;;;;;;6.64;100.00;102119.19;2089117;28;20045;-71
2023/03/30 03:51:37;;;;;;;0.25;0.25;;;;;;;6.64;100.00;102111.31;2082508;28;20072;-72
2023/03/30 03:52:58;;;;;;;0.15;0.15;;;;;;;6.66;100.00;102116.66;2082657;28;20048;-71
2023/03/30 03:54:21;;;;;;;0.00;0.00;;;;;;;6.65;100.00;102126.25;2075482;28;20050;-71
2023/03/30 03:55:44;;;;;;;0.00;0.00;;;;;;;6.65;100.00;102120.09;2074475;28;20426;-72
2023/03/30 03:57:07;;;;;;;0.00;0.00;;;;;;;6.64;100.00;102121.81;2084859;28;20750;-71
2023/03/30 03:58:30;;;;;;;0.00;0.00;;;;;;;6.65;100.00;102113.13;2085901;28;20060;-70
2023/03/30 03:59:53;;;;;;;0.10;0.10;;;;;;;6.69;100.00;102117.72;2075090;28;20107;-71
2023/03/30 04:01:17;;;;;;;0.05;0.05;;;;;;;6.72;100.00;102116.97;2074483;28;20050;-71
2023/03/30 04:02:40;;;;;;;0.63;0.30;;;;;;;6.73;100.00;102110.91;2080329;28;20413;-71
2023/03/30 04:04:03;;;;;;;0.00;0.00;;;;;;;6.73;100.00;102108.28;2076887;28;20532;-72
2023/03/30 04:05:24;;;;;;;0.00;0.00;;;;;;;6.72;100.00;102117.88;2074712;28;20540;-71
2023/03/30 04:06:47;;;;;;;0.00;0.00;;;;;;;6.71;100.00;102118.69;2074922;28;20080;-71
2023/03/30 04:08:09;;;;;;;0.10;0.10;;;;;;;6.69;100.00;102120.34;2075072;28;20049;-71
2023/03/30 04:09:32;;;;;;;0.10;0.10;;;;;;;6.65;100.00;102123.63;2085186;28;20115;-72
2023/03/30 04:11:15;;;;;;;;;;;;;;;6.59;100.00;102119.75;2086903;28;20056;-71
2023/03/30 04:13:04;;;;;;;0.20;0.20;;;;;;;6.62;100.00;102130.44;2096229;28;20384;-71
2023/03/30 04:14:45;;;;;;;0.03;0.03;;;;;;;6.65;100.00;102128.88;2102815;28;20047;-71
2023/03/30 04:16:29;;;;;;;0.00;0.00;;;;;;;6.68;100.00;102126.41;2072883;28;20402;-71
2023/03/30 04:18:14;;;;;;;0.00;0.00;;;;;;;6.69;100.00;102124.69;2083687;28;20099;-71
2023/03/30 04:20:11;;;;;;;0.00;0.00;;;;;;;6.68;100.00;102129.03;2090724;28;20465;-71
2023/03/30 04:22:06;;;;;;;0.05;0.05;;;;;;;6.69;100.00;102133.47;2077096;28;20063;-71
2023/03/30 04:23:49;;;;;;;0.00;0.00;;;;;;;6.71;100.00;102131.81;2093971;28;20049;-72
2023/03/30 04:25:13;;;;;;;0.00;0.00;;;;;;;6.76;100.00;102129.44;2087760;28;20049;-71
2023/03/30 04:27:08;;;;;;;0.00;0.00;;;;;;;6.83;100.00;102138.56;2086245;28;20386;-71
2023/03/30 04:28:56;;;;;;;0.43;0.43;;;;;;;6.94;100.00;102134.75;2085043;28;20044;-72
2023/03/30 04:31:02;;;;;;;0.00;0.00;;;;;;;7.12;100.00;102135.69;2081634;28;20045;-71
2023/03/30 04:32:43;;;;;;;0.95;0.20;;;;;;;7.27;100.00;102138.22;2078867;28;20055;-71
2023/03/30 04:34:41;;;;;;;0.00;0.00;;;;;;;7.41;100.00;102131.94;2074527;28;20473;-71
2023/03/30 04:36:34;;;;;;;0.47;0.47;;;;;;;7.55;100.00;102126.53;2063242;28;20074;-72
2023/03/30 04:38:20;;;;;;;0.00;0.00;;;;;;;7.70;100.00;102125.47;2078348;28;20104;-71
2023/03/30 04:40:08;;;;;;;0.63;0.63;;;;;;;7.81;100.00;102132.19;2087476;28;20041;-71
2023/03/30 04:41:46;;;;;;;0.00;0.00;;;;;;;7.91;100.00;102129.16;2080097;28;20053;-71
2023/03/30 04:43:31;;;;;;;0.35;0.25;;;;;;;7.99;100.00;102123.47;2096299;28;20574;-72
2023/03/30 04:45:15;;;;;;;;;;;;;;;8.08;100.00;102130.84;2087617;28;20504;-71
2023/03/30 04:47:03;;;;;;;0.10;0.10;;;;;;;8.19;100.00;102131.38;2087881;28;19947;-71
2023/03/30 04:48:53;;;;;;;0.00;0.00;;;;;;;8.31;100.00;102132.00;2086081;28;20132;-72
2023/03/30 04:50:32;;;;;;;0.00;0.00;;;;;;;8.48;100.00;102128.41;2078641;28;20562;-72
2023/03/30 04:52:22;;;;;;;0.32;0.22;;;;;;;8.68;100.00;102126.66;2078510;28;20487;-72
2023/03/30 04:54:08;;;;;;;5.47;0.20;;;;;;;8.84;100.00;102138.81;2091780;28;20048;-71
2023/03/30 04:55:57;;;;;;;0.20;0.20;;;;;;;8.99;100.00;102134.22;2075701;28;20048;-72
2023/03/30 04:57:38;;;;;;;0.00;0.00;;;;;;;9.12;100.00;102141.84;2098305;28;20044;-71
2023/03/30 04:59:20;;;;;;;0.45;0.10;;;;;;;9.27;100.00;102137.19;2088207;28;20519;-71
2023/03/30 05:00:57;;;;;;;0.00;0.00;;;;;;;9.40;100.00;102131.63;2085551;28;20106;-72
2023/03/30 05:02:38;;;;;;;0.00;0.00;;;;;;;9.57;100.00;102132.34;2086325;28;20067;-72
2023/03/30 05:04:35;;;;;;;0.08;0.00;;;;;;;9.76;100.00;102132.25;2076400;28;20591;-72
2023/03/30 05:06:32;;;;;;;0.00;0.00;;;;;;;9.91;100.00;102131.97;2079447;28;20532;-71
2023/03/30 05:08:13;;;;;;;0.00;0.00;;;;;;;10.08;100.00;102141.47;2100516;28;20060;-71
2023/03/30 05:09:44;;;;;;;0.13;0.13;;;;;;;10.23;100.00;102134.19;2081282;28;20493;-72
2023/03/30 05:11:22;;;;;;;0.22;0.10;;;;;;;10.38;100.00;102140.03;2084732;28;20552;-71
2023/03/30 05:12:54;;;;;;;0.00;0.00;;;;;;;10.51;100.00;102132.59;2092737;28;20040;-72
2023/03/30 05:14:46;;;;;;;0.00;0.00;;;;;;;10.60;100.00;102136.47;2076568;28;20390;-72
2023/03/30 05:16:41;;;;;;;0.00;0.00;;;;;;;10.73;100.00;102129.91;2073925;28;20749;-71
2023/03/30 05:18:23;;;;;;;;;;;;;;;10.76;100.00;102133.56;2096910;28;20130;-71
2023/03/30 05:20:22;;;;;;;0.00;0.00;;;;;;;10.89;100.00;102131.38;2087906;28;19960;-71
2023/03/30 05:22:01;;;;;;;0.55;0.40;;;;;;;10.93;100.00;102134.19;2062900;28;20046;-71
2023/03/30 05:24:02;;;;;;;0.05;0.05;;;;;;;11.03;100.00;102131.00;2085550;28;20059;-71
2023/03/30 05:25:45;;;;;;;0.10;0.10;;;;;;;11.16;100.00;102141.16;2098019;28;20569;-71
2023/03/30 05:27:26;;;;;;;0.00;0.00;;;;;;;11.29;100.00;102131.91;2087197;28;20041;-72
2023/03/30 05:29:01;;;;;;;0.00;0.00;;;;;;;11.40;100.00;102135.84;2078093;28;20045;-72
2023/03/30 05:30:46;;;;;;;1.38;0.65;;;;;;;11.55;100.00;102133.72;2083999;28;20111;-72
2023/03/30 05:32:42;;;;;;;0.00;0.00;;;;;;;11.71;100.00;102132.47;2070583;28;20046;-73
2023/03/30 05:34:40;;;;;;;0.10;0.08;;;;;;;11.85;100.00;102133.88;2080074;28;20054;-71
2023/03/30 05:36:24;;;;;;;0.00;0.00;;;;;;;11.96;100.00;102132.47;2088009;28;20049;-71
2023/03/30 05:38:02;;;;;;;0.00;0.00;;;;;;;12.08;100.00;102136.38;2085989;28;20049;-71
2023/03/30 05:39:48;;;;;;;0.85;0.85;;;;;;;12.21;100.00;102138.50;2078724;28;20136;-71
2023/03/30 05:41:37;;;;;;;0.00;0.00;;;;;;;12.34;100.00;102138.03;2086833;28;20140;-71
2023/03/30 05:43:29;;;;;;;0.00;0.00;;;;;;;12.51;100.00;102143.88;2086078;28;20053;-71
2023/03/30 05:45:15;;;;;;;0.28;0.28;;;;;;;12.66;100.00;102139.94;2080842;28;20433;-72
2023/03/30 05:46:56;;;;;;;0.00;0.00;;;;;;;12.78;100.00;102134.97;2087339;28;20049;-71
2023/03/30 05:48:53;;;;;;;0.22;0.20;;;;;;;12.95;100.00;102146.03;2079411;28;20099;-71
2023/03/30 05:50:15;;;;;;;0.00;0.00;;;;;;;13.07;100.00;102151.69;2093543;28;20059;-71
2023/03/30 05:51:50;;;;;;;0.00;0.00;;;;;;;13.24;100.00;102141.59;2075700;28;20068;-71
2023/03/30 05:53:36;;;;;;;0.10;0.10;;;;;;;13.42;100.00;102147.38;2079571;28;20076;-71
2023/03/30 05:55:19;;;;;;;0.20;0.15;;;;;;;13.62;100.00;102139.03;2078605;28;20219;-72
2023/03/30 05:57:05;;;;;;;0.00;0.00;;;;;;;13.81;100.00;102143.94;2083983;28;20456;-71
2023/03/30 05:58:32;;;;;;;0.00;0.00;;;;;;;13.98;100.00;102145.22;2085746;28;20053;-71
2023/03/30 06:00:08;;;;;;;0.13;0.13;;;;;;;14.16;100.00;102151.00;2078276;28;20041;-71
2023/03/30 06:01:48;;;;;;;0.00;0.00;;;;;;;14.32;100.00;102144.25;2078398;28;20048;-71
2023/03/30 06:03:10;;;;;;;0.00;0.00;;;;;;;14.46;100.00;102145.50;2075865;28;20521;-71
2023/03/30 06:04:33;;;;;;;0.00;0.00;;;;;;;14.62;100.00;102138.75;2086108;28;20120;-71
2023/03/30 06:05:57;;;;;;;0.00;0.00;;;;;;;14.76;100.00;102134.63;2077741;28;20041;-71
2023/03/30 06:07:20;;;;;;;0.00;0.00;;;;;;;14.91;100.00;102144.66;2078135;28;20487;-71
2023/03/30 06:08:42;;;;;;;0.00;0.00;;;;;;;15.04;100.00;102144.03;2087118;28;20048;-72
2023/03/30 06:10:12;;;;;;;0.00;0.00;;;;;;;15.19;100.00;102146.09;2080437;28;20056;-71
2023/03/30 06:11:35;;;;;;;0.03;0.03;;;;;;;15.29;100.00;102148.97;2087995;28;20036;-72
2023/03/30 06:13:07;;;;;;;0.00;0.00;;;;;;;15.41;100.00;102153.63;2077308;28;20068;-71
2023/03/30 06:14:42;;;;;;;0.05;0.05;;;;;;;15.56;100.00;102147.72;2076854;28;20148;-71
2023/03/30 06:16:21;;;;;;;0.00;0.00;;;;;;;15.67;100.00;102144.38;2076620;28;20559;-71
2023/03/30 06:17:43;;;;;;;0.00;0.00;;;;;;;15.78;100.00;102153.41;2073131;28;20508;-71
2023/03/30 06:19:06;;;;;;;0.00;0.00;;;;;;;15.88;100.00;102150.00;2073401;28;20056;-71
2023/03/30 06:20:29;;;;;;;0.50;0.47;;;;;;;16.07;100.00;102155.66;2074281;28;20144;-71
2023/03/30 06:21:54;;;;;;;0.00;0.00;;;;;;;16.21;100.00;102154.09;2074856;28;20073;-71
2023/03/30 06:23:39;;;;;;;0.00;0.00;;;;;;;16.26;100.00;102150.63;2086904;28;20432;-71
2023/03/30 06:25:08;;;;;;;0.00;0.00;;;;;;;16.31;100.00;102150.69;2076588;28;20838;-71
2023/03/30 06:26:31;;;;;;;0.00;0.00;;;;;;;16.37;100.00;102156.09;2094930;28;20088;-71
2023/03/30 06:27:52;;;;;;;0.00;0.00;;;;;;;16.45;100.00;102158.88;2084450;28;20049;-71
2023/03/30 06:29:15;;;;;;;0.10;0.10;;;;;;;16.51;100.00;102165.19;2079388;28;20469;-71
2023/03/30 06:30:39;;;;;;;0.28;0.00;;;;;;;16.56;100.00;102158.16;2090453;28;20057;-71
2023/03/30 06:32:05;;;;;;;0.00;0.00;;;;;;;16.56;100.00;102165.25;2086109;28;20164;-72
2023/03/30 06:33:54;;;;;;;0.00;0.00;;;;;;;16.55;99.29;102155.44;2066246;28;20097;-72
2023/03/30 06:35:17;;;;;;;0.10;0.10;;;;;;;16.63;99.38;102168.06;2076885;28;20049;-72
2023/03/30 06:36:40;;;;;;;0.00;0.00;;;;;;;16.73;99.21;102153.09;2072613;28;20062;-71
2023/03/30 06:38:03;;;;;;;1.30;0.40;;;;;;;16.85;98.80;102163.91;2074032;28;20112;-72
2023/03/30 06:39:28;;;;;;;0.00;0.00;;;;;;;17.01;98.64;102165.88;2076865;28;20098;-72
2023/03/30 06:40:52;;;;;;;0.03;0.03;;;;;;;17.19;98.25;102165.19;2071905;28;20821;-72
2023/03/30 06:42:17;;;;;;;0.00;0.00;;;;;;;17.35;98.23;102161.78;2089262;28;20082;-72
2023/03/30 06:43:57;;;;;;;0.22;0.10;;;;;;;17.54;97.22;102173.56;2078223;28;20045;-72
2023/03/30 06:45:27;;;;;;;0.00;0.00;;;;;;;17.64;96.74;102164.78;2074980;28;21952;-71
2023/03/30 06:46:50;;;;;;;0.00;0.00;;;;;;;17.76;97.01;102169.34;2081608;28;20041;-72
2023/03/30 06:48:12;;;;;;;0.00;0.00;;;;;;;17.88;97.01;102170.34;2074888;28;20045;-71
2023/03/30 06:49:36;;;;;;;0.08;0.08;;;;;;;17.90;95.86;102171.25;2068074;28;20038;-71
2023/03/30 06:51:15;;;;;;;0.00;0.00;;;;;;;17.97;96.62;102166.84;2094959;28;20053;-72
2023/03/30 06:52:38;;;;;;;0.32;0.32;;;;;;;18.12;96.46;102164.28;2071086;28;20484;-72
2023/03/30 06:54:01;;;;;;;0.00;0.00;;;;;;;18.21;96.19;102167.03;2088158;28;20477;-72
2023/03/30 06:55:25;;;;;;;0.00;0.00;;;;;;;18.23;95.06;102167.94;2076348;28;20487;-72
2023/03/30 06:56:48;;;;;;;0.00;0.00;;;;;;;18.19;96.29;102160.75;2074367;28;20077;-71
2023/03/30 06:58:12;;;;;;;0.00;0.00;;;;;;;18.23;95.94;102167.03;2073624;28;20041;-72
2023/03/30 06:59:35;;;;;;;0.17;0.15;;;;;;;18.26;95.43;102175.06;2075329;28;20112;-72
2023/03/30 07:01:27;;;;;;;0.00;0.00;;;;;;;18.26;95.51;102177.75;2077037;28;20060;-71
2023/03/30 07:02:52;;;;;;;0.10;0.05;;;;;;;18.39;95.90;102168.00;2078205;28;20513;-72
2023/03/30 07:04:23;;;;;;;0.28;0.20;;;;;;;18.55;95.66;102168.16;2077171;28;20504;-72
2023/03/30 07:06:08;;;;;;;0.00;0.00;;;;;;;18.75;95.13;102172.72;2078654;28;20048;-72
2023/03/30 07:07:33;;;;;;;0.00;0.00;;;;;;;18.82;93.36;102175.44;2069935;28;20136;-71
2023/03/30 07:08:55;;;;;;;0.00;0.00;;;;;;;18.78;93.34;102175.38;2091368;28;20129;-72
2023/03/30 07:10:21;;;;;;;0.00;0.00;;;;;;;18.77;92.14;102176.31;2077293;28;20064;-72